Weather History for Lincoln, CA

Change the Weather History Date:

Monday, February 18, 2013

  Actual Average (KAUN) Record (KAUN)
Temperature  
Mean Temperature 47 °F -  
Max Temperature 59 °F 58 °F 76 °F (1977)
Min Temperature 35 °F 40 °F 28 °F (1956)
Degree Days  
Heating Degree Days 18    
Moisture  
Dew Point 38 °F    
Average Humidity 70    
Maximum Humidity 93    
Minimum Humidity 51    
Precipitation  
Precipitation 0.00 in - - ()
Sea Level Pressure  
Sea Level Pressure 29.95 in    
Wind  
Wind Speed 7 mph (SSE)    
Max Wind Speed 18 mph    
Max Gust Speed 23 mph    
Visibility 10 miles    
Events      
Averages and records for this station are not official NWS values.
T = Trace of Precipitation, MM = Missing Value Source: NWS Daily Summary

Daily Weather History Graph

Daily Weather History Graph

Search for Another Location

Airport:

Trip Planner

Search our weather history database for the weather conditions in past years. The results will help you decide how hot, cold, wet, or windy it might be!

Date:

Astronomy

Feb. 18, 2013 Rise Set
Actual Time 6:52 AM PST 5:46 PM PST
Civil Twilight 6:25 AM PST 6:13 PM PST
Nautical Twilight 5:54 AM PST 6:44 PM PST
Astronomical Twilight 5:23 AM PST 7:15 PM PST
Moon 11:38 AM PST (2/18) 1:35 AM PST (2/18)
Length of Visible Light 11h 48m
Length of Day
10h 54m
First Quarter, 59% of the Moon is Illuminated
Feb 18
First Quarter
Feb 25
Full
Mar 4
Last Quarter
Mar 11
New
Mar 19
First Quarter

Hourly Weather History & Observations

Time (PST) Temp. Windchill Dew Point Humidity Pressure Visibility Wind Dir Wind Speed Gust Speed Precip Events Conditions
12:15 AM 44.6 °F - 35.6 °F 71% 29.97 in 10.0 mi Calm Calm - N/A   Clear
12:35 AM 41.0 °F 39.0 °F 37.4 °F 87% 29.98 in 10.0 mi ESE 3.5 mph - N/A   Clear
12:55 AM 42.8 °F 41.1 °F 37.4 °F 81% 29.98 in 10.0 mi SE 3.5 mph - N/A   Clear
1:15 AM 41.0 °F - 35.6 °F 81% 29.98 in 10.0 mi Calm Calm - N/A   Clear
1:35 AM 39.2 °F 35.9 °F 33.8 °F 81% 29.98 in 10.0 mi East 4.6 mph - N/A   Clear
1:55 AM 35.6 °F 32.8 °F 33.8 °F 93% 29.98 in 10.0 mi East 3.5 mph - N/A   Clear
2:15 AM 41.0 °F - 35.6 °F 81% 29.98 in 10.0 mi Calm Calm - N/A   Clear
2:35 AM 37.4 °F 33.8 °F 33.8 °F 87% 29.98 in 10.0 mi East 4.6 mph - N/A   Clear
2:55 AM 41.0 °F 36.4 °F 35.6 °F 81% 29.97 in 10.0 mi East 6.9 mph - N/A   Clear
3:35 AM 37.4 °F 34.9 °F 35.6 °F 93% 29.96 in 10.0 mi ESE 3.5 mph - N/A   Clear
3:55 AM 41.0 °F - 35.6 °F 81% 29.96 in 10.0 mi Calm Calm - N/A   Clear
4:15 AM 39.2 °F - 33.8 °F 81% 29.96 in 10.0 mi Calm Calm - N/A   Clear
4:35 AM 37.4 °F 34.9 °F 33.8 °F 87% 29.96 in 10.0 mi SSW 3.5 mph - N/A   Clear
4:55 AM 37.4 °F 32.8 °F 35.6 °F 93% 29.96 in 10.0 mi SSE 5.8 mph - N/A   Clear
5:15 AM 42.8 °F 40.1 °F 35.6 °F 76% 29.96 in 10.0 mi SE 4.6 mph - N/A   Clear
5:35 AM 41.0 °F 38.0 °F 35.6 °F 81% 29.96 in 10.0 mi SSE 4.6 mph - N/A   Clear
5:55 AM 37.4 °F 32.8 °F 33.8 °F 87% 29.96 in 10.0 mi SSE 5.8 mph - N/A   Clear
6:15 AM 41.0 °F 37.1 °F 35.6 °F 81% 29.96 in 10.0 mi SE 5.8 mph - N/A   Clear
6:35 AM 41.0 °F 39.0 °F 33.8 °F 76% 29.97 in 10.0 mi SE 3.5 mph - N/A   Clear
6:55 AM 42.8 °F 41.1 °F 35.6 °F 76% 29.97 in 10.0 mi SE 3.5 mph - N/A   Clear
7:15 AM 42.8 °F 41.1 °F 35.6 °F 76% 29.97 in 10.0 mi SE 3.5 mph - N/A   Clear
7:35 AM 44.6 °F 42.2 °F 35.6 °F 71% 29.97 in 10.0 mi SE 4.6 mph - N/A   Clear
7:55 AM 42.8 °F 39.3 °F 37.4 °F 81% 29.99 in 10.0 mi South 5.8 mph - N/A   Clear
8:15 AM 44.6 °F 41.4 °F 37.4 °F 76% 29.99 in 10.0 mi South 5.8 mph - N/A   Clear
8:35 AM 46.4 °F 41.9 °F 41.0 °F 81% 30.00 in 10.0 mi SSE 9.2 mph - N/A   Clear
8:55 AM 48.2 °F - 41.0 °F 76% 30.01 in 10.0 mi South 9.2 mph - N/A   Clear
9:15 AM 50.0 °F - 42.8 °F 76% 30.01 in 10.0 mi SSE 6.9 mph - N/A   Clear
9:35 AM 50.0 °F - 42.8 °F 76% 30.01 in 10.0 mi SSE 8.1 mph - N/A   Clear
9:55 AM 51.8 °F - 42.8 °F 71% 30.00 in 10.0 mi South 9.2 mph - N/A   Clear
10:15 AM 51.8 °F - 42.8 °F 71% 30.00 in 10.0 mi SSE 8.1 mph - N/A   Clear
10:35 AM 51.8 °F - 42.8 °F 71% 30.00 in 10.0 mi South 9.2 mph - N/A   Clear
10:55 AM 53.6 °F - 41.0 °F 62% 30.00 in 10.0 mi South 9.2 mph - N/A   Clear
11:15 AM 53.6 °F - 41.0 °F 62% 30.00 in 10.0 mi SSE 10.4 mph 16.1 mph N/A   Clear
11:35 AM 55.4 °F - 41.0 °F 58% 29.99 in 10.0 mi SSE 12.7 mph - N/A   Clear
11:55 AM 55.4 °F - 41.0 °F 58% 29.98 in 10.0 mi SSE 10.4 mph - N/A   Clear
12:15 PM 59.0 °F - 42.8 °F 55% 29.97 in 10.0 mi SSE 6.9 mph - N/A   Clear
12:35 PM 57.2 °F - 41.0 °F 55% 29.96 in 10.0 mi South 10.4 mph - N/A   Clear
12:55 PM 59.0 °F - 41.0 °F 51% 29.96 in 10.0 mi South 10.4 mph - N/A   Clear
1:15 PM 59.0 °F - 41.0 °F 51% 29.94 in 10.0 mi South 11.5 mph - N/A   Clear
1:35 PM 59.0 °F - 42.8 °F 55% 29.93 in 10.0 mi South 16.1 mph - N/A   Clear
1:55 PM 59.0 °F - 42.8 °F 55% 29.92 in 10.0 mi South 10.4 mph 16.1 mph N/A   Clear
2:15 PM 59.0 °F - 42.8 °F 55% 29.91 in 10.0 mi South 9.2 mph - N/A   Clear
2:35 PM 59.0 °F - 42.8 °F 55% 29.91 in 10.0 mi SSW 13.8 mph - N/A   Clear
2:55 PM 57.2 °F - 42.8 °F 59% 29.91 in 10.0 mi SSW 13.8 mph - N/A   Clear
3:15 PM 55.4 °F - 41.0 °F 58% 29.89 in 10.0 mi SSW 17.3 mph - N/A   Clear
3:35 PM 53.6 °F - 41.0 °F 62% 29.89 in 10.0 mi SSW 18.4 mph - N/A   Clear
3:55 PM 53.6 °F - 41.0 °F 62% 29.90 in 10.0 mi SSW 16.1 mph 21.9 mph N/A   Clear
4:15 PM 51.8 °F - 39.2 °F 62% 29.90 in 10.0 mi SSW 16.1 mph 23.0 mph N/A   Clear
4:35 PM 51.8 °F - 39.2 °F 62% 29.91 in 10.0 mi SSW 15.0 mph 20.7 mph N/A   Mostly Cloudy
4:55 PM 51.8 °F - 37.4 °F 58% 29.90 in 10.0 mi SSW 13.8 mph - N/A   Overcast
5:15 PM 51.8 °F - 39.2 °F 62% 29.91 in 10.0 mi South 11.5 mph 18.4 mph N/A   Overcast
5:35 PM 50.0 °F - 37.4 °F 62% 29.91 in 10.0 mi South 11.5 mph - N/A   Overcast
5:55 PM 50.0 °F - 39.2 °F 66% 29.91 in 10.0 mi South 10.4 mph - N/A   Overcast
6:15 PM 50.0 °F - 39.2 °F 66% 29.91 in 10.0 mi SSE 10.4 mph - N/A   Overcast
6:35 PM 50.0 °F - 37.4 °F 62% 29.91 in 10.0 mi South 11.5 mph - N/A   Overcast
6:55 PM 48.2 °F - 35.6 °F 62% 29.92 in 10.0 mi SSE 15.0 mph - N/A   Scattered Clouds
7:15 PM 48.2 °F - 35.6 °F 62% 29.91 in 10.0 mi SSE 13.8 mph - N/A   Clear
7:35 PM 46.4 °F 39.8 °F 35.6 °F 66% 29.91 in 10.0 mi SSE 16.1 mph - N/A   Clear
7:55 PM 46.4 °F 41.1 °F 37.4 °F 71% 29.92 in 10.0 mi SSE 11.5 mph - N/A   Mostly Cloudy
8:15 PM 46.4 °F 39.8 °F 37.4 °F 71% 29.93 in 10.0 mi SSE 16.1 mph - N/A   Overcast
8:35 PM 46.4 °F 40.1 °F 35.6 °F 66% 29.92 in 10.0 mi SSE 15.0 mph - N/A   Overcast
8:55 PM 46.4 °F 39.5 °F 35.6 °F 66% 29.91 in 10.0 mi SE 17.3 mph - N/A   Overcast
9:15 PM 46.4 °F 39.8 °F 35.6 °F 66% 29.91 in 10.0 mi SSE 16.1 mph 21.9 mph N/A   Overcast
9:55 PM 46.4 °F 40.4 °F 35.6 °F 66% 29.93 in 10.0 mi SSE 13.8 mph - N/A   Mostly Cloudy
10:15 PM 46.4 °F 40.1 °F 37.4 °F 71% 29.93 in 10.0 mi SSE 15.0 mph - N/A   Overcast
10:35 PM 46.4 °F 39.8 °F 37.4 °F 71% 29.92 in 10.0 mi SE 16.1 mph - N/A   Overcast
10:55 PM 46.4 °F 39.8 °F 37.4 °F 71% 29.91 in 10.0 mi SSE 16.1 mph 23.0 mph N/A   Overcast
11:15 PM 46.4 °F 40.1 °F 37.4 °F 71% 29.91 in 10.0 mi SSE 15.0 mph 21.9 mph N/A   Overcast
11:35 PM 46.4 °F 40.4 °F 37.4 °F 71% 29.91 in 10.0 mi SE 13.8 mph - N/A   Overcast
11:55 PM 46.4 °F 40.4 °F 37.4 °F 71% 29.91 in 10.0 mi SSE 13.8 mph 20.7 mph N/A   Overcast